sensor_id;sensor_type;location;lat;lon;timestamp;P1;durP1;ratioP1;P2;durP2;ratioP2
36137;SDS011;22194;50.046;21.954;2022-07-22T00:00:24;21.00;;;7.00;;
36137;SDS011;22194;50.046;21.954;2022-07-22T00:03:03;18.00;;;6.70;;
36137;SDS011;22194;50.046;21.954;2022-07-22T00:05:36;21.90;;;6.80;;
36137;SDS011;22194;50.046;21.954;2022-07-22T00:08:06;16.70;;;7.00;;
36137;SDS011;22194;50.046;21.954;2022-07-22T00:10:35;18.10;;;7.00;;
36137;SDS011;22194;50.046;21.954;2022-07-22T00:13:05;19.30;;;6.80;;
36137;SDS011;22194;50.046;21.954;2022-07-22T00:15:36;17.80;;;6.30;;
36137;SDS011;22194;50.046;21.954;2022-07-22T00:18:06;15.30;;;6.30;;
36137;SDS011;22194;50.046;21.954;2022-07-22T00:20:36;17.70;;;6.90;;
36137;SDS011;22194;50.046;21.954;2022-07-22T00:23:07;19.40;;;6.80;;
36137;SDS011;22194;50.046;21.954;2022-07-22T00:25:37;14.50;;;5.90;;
36137;SDS011;22194;50.046;21.954;2022-07-22T00:28:05;15.00;;;6.20;;
36137;SDS011;22194;50.046;21.954;2022-07-22T00:30:35;17.70;;;6.50;;
36137;SDS011;22194;50.046;21.954;2022-07-22T00:33:03;17.40;;;6.60;;
36137;SDS011;22194;50.046;21.954;2022-07-22T00:35:31;18.50;;;6.60;;
36137;SDS011;22194;50.046;21.954;2022-07-22T00:37:59;16.70;;;6.10;;
36137;SDS011;22194;50.046;21.954;2022-07-22T00:40:29;20.70;;;6.20;;
36137;SDS011;22194;50.046;21.954;2022-07-22T00:42:57;17.10;;;6.50;;
36137;SDS011;22194;50.046;21.954;2022-07-22T00:45:29;17.40;;;6.50;;
36137;SDS011;22194;50.046;21.954;2022-07-22T00:48:00;19.60;;;6.70;;
36137;SDS011;22194;50.046;21.954;2022-07-22T00:50:28;16.70;;;6.60;;
36137;SDS011;22194;50.046;21.954;2022-07-22T00:52:59;15.10;;;6.00;;
36137;SDS011;22194;50.046;21.954;2022-07-22T00:55:30;15.30;;;6.20;;
36137;SDS011;22194;50.046;21.954;2022-07-22T00:58:01;16.20;;;6.20;;
36137;SDS011;22194;50.046;21.954;2022-07-22T01:00:31;15.10;;;6.10;;
36137;SDS011;22194;50.046;21.954;2022-07-22T01:03:03;22.50;;;6.60;;
36137;SDS011;22194;50.046;21.954;2022-07-22T01:05:31;17.20;;;6.20;;
36137;SDS011;22194;50.046;21.954;2022-07-22T01:08:00;19.60;;;5.90;;
36137;SDS011;22194;50.046;21.954;2022-07-22T01:10:28;16.10;;;6.40;;
36137;SDS011;22194;50.046;21.954;2022-07-22T01:12:58;14.90;;;6.10;;
36137;SDS011;22194;50.046;21.954;2022-07-22T01:15:27;20.40;;;6.30;;
36137;SDS011;22194;50.046;21.954;2022-07-22T01:17:54;17.00;;;5.90;;
36137;SDS011;22194;50.046;21.954;2022-07-22T01:20:25;20.20;;;7.90;;
36137;SDS011;22194;50.046;21.954;2022-07-22T01:22:56;16.20;;;6.30;;
36137;SDS011;22194;50.046;21.954;2022-07-22T01:25:24;16.30;;;6.50;;
36137;SDS011;22194;50.046;21.954;2022-07-22T01:27:54;15.60;;;6.20;;
36137;SDS011;22194;50.046;21.954;2022-07-22T01:30:25;14.70;;;5.60;;
36137;SDS011;22194;50.046;21.954;2022-07-22T01:32:55;16.80;;;6.20;;
36137;SDS011;22194;50.046;21.954;2022-07-22T01:35:24;16.10;;;6.40;;
36137;SDS011;22194;50.046;21.954;2022-07-22T01:37:52;13.20;;;5.40;;
36137;SDS011;22194;50.046;21.954;2022-07-22T01:40:22;16.00;;;6.00;;
36137;SDS011;22194;50.046;21.954;2022-07-22T01:42:51;14.60;;;6.00;;
36137;SDS011;22194;50.046;21.954;2022-07-22T01:45:21;19.40;;;6.10;;
36137;SDS011;22194;50.046;21.954;2022-07-22T01:47:51;14.10;;;5.50;;
36137;SDS011;22194;50.046;21.954;2022-07-22T01:50:19;17.00;;;5.90;;
36137;SDS011;22194;50.046;21.954;2022-07-22T01:52:49;13.40;;;5.40;;
36137;SDS011;22194;50.046;21.954;2022-07-22T01:55:20;17.90;;;5.40;;
36137;SDS011;22194;50.046;21.954;2022-07-22T01:57:48;15.30;;;5.30;;
36137;SDS011;22194;50.046;21.954;2022-07-22T02:00:19;13.70;;;5.20;;
36137;SDS011;22194;50.046;21.954;2022-07-22T02:02:49;13.30;;;5.10;;
36137;SDS011;22194;50.046;21.954;2022-07-22T02:05:17;9.90;;;4.90;;
36137;SDS011;22194;50.046;21.954;2022-07-22T02:07:48;14.80;;;5.20;;
36137;SDS011;22194;50.046;21.954;2022-07-22T02:10:16;12.70;;;4.60;;
36137;SDS011;22194;50.046;21.954;2022-07-22T02:12:47;11.10;;;4.70;;
36137;SDS011;22194;50.046;21.954;2022-07-22T02:15:16;11.30;;;4.70;;
36137;SDS011;22194;50.046;21.954;2022-07-22T02:17:46;13.70;;;5.30;;
36137;SDS011;22194;50.046;21.954;2022-07-22T02:20:14;15.80;;;4.80;;
36137;SDS011;22194;50.046;21.954;2022-07-22T02:22:42;11.10;;;4.60;;
36137;SDS011;22194;50.046;21.954;2022-07-22T02:25:11;13.70;;;5.20;;
36137;SDS011;22194;50.046;21.954;2022-07-22T02:27:41;12.00;;;4.90;;
36137;SDS011;22194;50.046;21.954;2022-07-22T02:30:11;14.90;;;5.10;;
36137;SDS011;22194;50.046;21.954;2022-07-22T02:32:41;11.70;;;4.90;;
36137;SDS011;22194;50.046;21.954;2022-07-22T02:35:09;12.80;;;4.90;;
36137;SDS011;22194;50.046;21.954;2022-07-22T02:37:38;11.80;;;4.70;;
36137;SDS011;22194;50.046;21.954;2022-07-22T02:40:06;9.50;;;4.40;;
36137;SDS011;22194;50.046;21.954;2022-07-22T02:42:37;17.30;;;5.10;;
36137;SDS011;22194;50.046;21.954;2022-07-22T02:45:08;13.20;;;4.90;;
36137;SDS011;22194;50.046;21.954;2022-07-22T02:47:44;13.80;;;4.60;;
36137;SDS011;22194;50.046;21.954;2022-07-22T02:50:13;14.20;;;4.90;;
36137;SDS011;22194;50.046;21.954;2022-07-22T02:52:41;15.80;;;5.10;;
36137;SDS011;22194;50.046;21.954;2022-07-22T02:55:11;14.30;;;5.00;;
36137;SDS011;22194;50.046;21.954;2022-07-22T02:57:40;20.50;;;5.20;;
36137;SDS011;22194;50.046;21.954;2022-07-22T03:00:11;12.20;;;4.90;;
36137;SDS011;22194;50.046;21.954;2022-07-22T03:02:42;11.80;;;4.70;;
36137;SDS011;22194;50.046;21.954;2022-07-22T03:05:13;14.40;;;5.10;;
36137;SDS011;22194;50.046;21.954;2022-07-22T03:07:41;12.20;;;5.00;;
36137;SDS011;22194;50.046;21.954;2022-07-22T03:10:10;15.10;;;4.80;;
36137;SDS011;22194;50.046;21.954;2022-07-22T03:12:40;13.20;;;5.10;;
36137;SDS011;22194;50.046;21.954;2022-07-22T03:15:13;12.20;;;5.20;;
36137;SDS011;22194;50.046;21.954;2022-07-22T03:17:41;16.80;;;5.70;;
36137;SDS011;22194;50.046;21.954;2022-07-22T03:20:12;12.80;;;4.90;;
36137;SDS011;22194;50.046;21.954;2022-07-22T03:22:40;12.90;;;4.80;;
36137;SDS011;22194;50.046;21.954;2022-07-22T03:25:08;12.30;;;4.90;;
36137;SDS011;22194;50.046;21.954;2022-07-22T03:27:36;14.20;;;4.70;;
36137;SDS011;22194;50.046;21.954;2022-07-22T03:30:08;13.20;;;5.00;;
36137;SDS011;22194;50.046;21.954;2022-07-22T03:32:37;11.60;;;4.40;;
36137;SDS011;22194;50.046;21.954;2022-07-22T03:35:07;9.00;;;4.50;;
36137;SDS011;22194;50.046;21.954;2022-07-22T03:37:35;9.40;;;4.30;;
36137;SDS011;22194;50.046;21.954;2022-07-22T03:40:07;13.50;;;4.30;;
36137;SDS011;22194;50.046;21.954;2022-07-22T03:42:37;8.30;;;3.90;;
36137;SDS011;22194;50.046;21.954;2022-07-22T03:45:15;10.40;;;4.90;;
36137;SDS011;22194;50.046;21.954;2022-07-22T03:47:46;8.80;;;3.90;;
36137;SDS011;22194;50.046;21.954;2022-07-22T03:50:14;12.60;;;4.70;;
36137;SDS011;22194;50.046;21.954;2022-07-22T03:52:44;12.50;;;4.40;;
36137;SDS011;22194;50.046;21.954;2022-07-22T03:55:14;10.60;;;4.40;;
36137;SDS011;22194;50.046;21.954;2022-07-22T03:57:47;10.10;;;4.00;;
36137;SDS011;22194;50.046;21.954;2022-07-22T04:00:17;14.40;;;5.40;;
36137;SDS011;22194;50.046;21.954;2022-07-22T04:02:45;11.90;;;4.60;;
36137;SDS011;22194;50.046;21.954;2022-07-22T04:05:15;13.10;;;4.20;;
36137;SDS011;22194;50.046;21.954;2022-07-22T04:07:43;11.90;;;4.20;;
36137;SDS011;22194;50.046;21.954;2022-07-22T04:10:13;12.10;;;4.60;;
36137;SDS011;22194;50.046;21.954;2022-07-22T04:12:41;11.20;;;4.50;;
36137;SDS011;22194;50.046;21.954;2022-07-22T04:15:09;9.80;;;4.20;;
36137;SDS011;22194;50.046;21.954;2022-07-22T04:17:40;11.00;;;4.50;;
36137;SDS011;22194;50.046;21.954;2022-07-22T04:20:11;8.60;;;3.90;;
36137;SDS011;22194;50.046;21.954;2022-07-22T04:22:41;11.40;;;4.30;;
36137;SDS011;22194;50.046;21.954;2022-07-22T04:25:08;11.20;;;4.60;;
36137;SDS011;22194;50.046;21.954;2022-07-22T04:27:36;9.30;;;4.20;;
36137;SDS011;22194;50.046;21.954;2022-07-22T04:30:09;12.90;;;4.60;;
36137;SDS011;22194;50.046;21.954;2022-07-22T04:32:37;10.10;;;4.40;;
36137;SDS011;22194;50.046;21.954;2022-07-22T04:35:06;10.40;;;3.80;;
36137;SDS011;22194;50.046;21.954;2022-07-22T04:37:36;7.00;;;3.80;;
36137;SDS011;22194;50.046;21.954;2022-07-22T04:40:07;11.30;;;4.20;;
36137;SDS011;22194;50.046;21.954;2022-07-22T04:42:36;11.40;;;4.60;;
36137;SDS011;22194;50.046;21.954;2022-07-22T04:45:06;9.40;;;4.00;;
36137;SDS011;22194;50.046;21.954;2022-07-22T04:47:37;9.50;;;4.30;;
36137;SDS011;22194;50.046;21.954;2022-07-22T04:50:10;11.40;;;4.50;;
36137;SDS011;22194;50.046;21.954;2022-07-22T04:52:38;11.50;;;4.00;;
36137;SDS011;22194;50.046;21.954;2022-07-22T04:55:18;9.60;;;4.50;;
36137;SDS011;22194;50.046;21.954;2022-07-22T04:57:48;10.30;;;4.20;;
36137;SDS011;22194;50.046;21.954;2022-07-22T05:00:18;11.20;;;4.20;;
36137;SDS011;22194;50.046;21.954;2022-07-22T05:02:48;12.00;;;4.60;;
36137;SDS011;22194;50.046;21.954;2022-07-22T05:05:17;10.80;;;4.30;;
36137;SDS011;22194;50.046;21.954;2022-07-22T05:07:49;12.60;;;5.20;;
36137;SDS011;22194;50.046;21.954;2022-07-22T05:10:17;12.80;;;5.10;;
36137;SDS011;22194;50.046;21.954;2022-07-22T05:12:48;13.00;;;5.00;;
36137;SDS011;22194;50.046;21.954;2022-07-22T05:15:16;9.60;;;3.60;;
36137;SDS011;22194;50.046;21.954;2022-07-22T05:17:43;13.10;;;4.70;;
36137;SDS011;22194;50.046;21.954;2022-07-22T05:20:13;10.20;;;4.00;;
36137;SDS011;22194;50.046;21.954;2022-07-22T05:22:44;9.30;;;4.00;;
36137;SDS011;22194;50.046;21.954;2022-07-22T05:25:12;12.10;;;4.10;;
36137;SDS011;22194;50.046;21.954;2022-07-22T05:27:49;11.10;;;4.00;;
36137;SDS011;22194;50.046;21.954;2022-07-22T05:30:18;11.00;;;4.10;;
36137;SDS011;22194;50.046;21.954;2022-07-22T05:32:51;9.60;;;3.50;;
36137;SDS011;22194;50.046;21.954;2022-07-22T05:35:21;8.10;;;3.60;;
36137;SDS011;22194;50.046;21.954;2022-07-22T05:37:49;10.20;;;3.50;;
36137;SDS011;22194;50.046;21.954;2022-07-22T05:40:19;8.70;;;3.50;;
36137;SDS011;22194;50.046;21.954;2022-07-22T05:42:47;12.20;;;3.80;;
36137;SDS011;22194;50.046;21.954;2022-07-22T05:45:17;7.70;;;3.40;;
36137;SDS011;22194;50.046;21.954;2022-07-22T05:47:45;5.80;;;3.40;;
36137;SDS011;22194;50.046;21.954;2022-07-22T05:50:14;9.90;;;3.70;;
36137;SDS011;22194;50.046;21.954;2022-07-22T05:52:42;10.60;;;3.50;;
36137;SDS011;22194;50.046;21.954;2022-07-22T05:55:10;9.20;;;3.40;;
36137;SDS011;22194;50.046;21.954;2022-07-22T05:57:37;11.30;;;3.70;;
36137;SDS011;22194;50.046;21.954;2022-07-22T06:00:05;7.70;;;3.10;;
36137;SDS011;22194;50.046;21.954;2022-07-22T06:02:36;8.60;;;3.40;;
36137;SDS011;22194;50.046;21.954;2022-07-22T06:05:04;7.80;;;3.40;;
36137;SDS011;22194;50.046;21.954;2022-07-22T06:07:32;9.40;;;3.40;;
36137;SDS011;22194;50.046;21.954;2022-07-22T06:09:59;10.00;;;3.80;;
36137;SDS011;22194;50.046;21.954;2022-07-22T06:12:27;10.30;;;3.70;;
36137;SDS011;22194;50.046;21.954;2022-07-22T06:14:55;8.80;;;3.20;;
36137;SDS011;22194;50.046;21.954;2022-07-22T06:17:23;15.00;;;4.30;;
36137;SDS011;22194;50.046;21.954;2022-07-22T06:19:54;7.70;;;3.40;;
36137;SDS011;22194;50.046;21.954;2022-07-22T06:22:22;12.90;;;3.50;;
36137;SDS011;22194;50.046;21.954;2022-07-22T06:24:51;7.40;;;3.10;;
36137;SDS011;22194;50.046;21.954;2022-07-22T06:27:40;10.80;;;4.00;;
36137;SDS011;22194;50.046;21.954;2022-07-22T06:30:12;13.60;;;4.20;;
36137;SDS011;22194;50.046;21.954;2022-07-22T06:32:43;12.40;;;3.90;;
36137;SDS011;22194;50.046;21.954;2022-07-22T06:35:21;12.00;;;4.20;;
36137;SDS011;22194;50.046;21.954;2022-07-22T06:37:52;10.40;;;3.50;;
36137;SDS011;22194;50.046;21.954;2022-07-22T06:40:33;10.20;;;3.60;;
36137;SDS011;22194;50.046;21.954;2022-07-22T06:43:07;11.30;;;3.80;;
36137;SDS011;22194;50.046;21.954;2022-07-22T06:45:35;11.40;;;4.20;;
36137;SDS011;22194;50.046;21.954;2022-07-22T06:48:05;6.60;;;3.10;;
36137;SDS011;22194;50.046;21.954;2022-07-22T06:50:33;14.70;;;3.90;;
36137;SDS011;22194;50.046;21.954;2022-07-22T06:53:03;9.50;;;3.60;;
36137;SDS011;22194;50.046;21.954;2022-07-22T06:55:31;10.00;;;3.70;;
36137;SDS011;22194;50.046;21.954;2022-07-22T06:58:03;8.40;;;3.20;;
36137;SDS011;22194;50.046;21.954;2022-07-22T07:00:33;9.70;;;3.70;;
36137;SDS011;22194;50.046;21.954;2022-07-22T07:03:03;10.00;;;3.70;;
36137;SDS011;22194;50.046;21.954;2022-07-22T07:05:57;6.70;;;3.60;;
36137;SDS011;22194;50.046;21.954;2022-07-22T07:08:26;7.80;;;3.60;;
36137;SDS011;22194;50.046;21.954;2022-07-22T07:10:54;9.20;;;3.70;;
36137;SDS011;22194;50.046;21.954;2022-07-22T07:13:23;9.60;;;3.60;;
36137;SDS011;22194;50.046;21.954;2022-07-22T07:15:51;14.60;;;3.80;;
36137;SDS011;22194;50.046;21.954;2022-07-22T07:18:19;11.10;;;3.80;;
36137;SDS011;22194;50.046;21.954;2022-07-22T07:20:47;8.00;;;3.70;;
36137;SDS011;22194;50.046;21.954;2022-07-22T07:23:16;10.10;;;3.70;;
36137;SDS011;22194;50.046;21.954;2022-07-22T07:25:48;7.40;;;3.30;;
36137;SDS011;22194;50.046;21.954;2022-07-22T07:28:22;15.30;;;3.50;;
36137;SDS011;22194;50.046;21.954;2022-07-22T07:30:52;8.20;;;3.20;;
36137;SDS011;22194;50.046;21.954;2022-07-22T07:33:23;8.80;;;3.60;;
36137;SDS011;22194;50.046;21.954;2022-07-22T07:35:53;6.00;;;3.20;;
36137;SDS011;22194;50.046;21.954;2022-07-22T07:38:24;11.40;;;3.30;;
36137;SDS011;22194;50.046;21.954;2022-07-22T07:40:54;9.80;;;3.40;;
36137;SDS011;22194;50.046;21.954;2022-07-22T07:43:24;5.60;;;2.60;;
36137;SDS011;22194;50.046;21.954;2022-07-22T07:45:55;7.70;;;3.00;;
36137;SDS011;22194;50.046;21.954;2022-07-22T07:48:24;5.60;;;2.80;;
36137;SDS011;22194;50.046;21.954;2022-07-22T07:50:52;8.40;;;3.30;;
36137;SDS011;22194;50.046;21.954;2022-07-22T07:53:20;7.10;;;3.00;;
36137;SDS011;22194;50.046;21.954;2022-07-22T07:55:50;7.30;;;3.00;;
36137;SDS011;22194;50.046;21.954;2022-07-22T08:00:50;7.20;;;3.00;;
36137;SDS011;22194;50.046;21.954;2022-07-22T08:03:19;9.10;;;3.50;;
36137;SDS011;22194;50.046;21.954;2022-07-22T08:05:48;9.90;;;3.50;;
36137;SDS011;22194;50.046;21.954;2022-07-22T08:08:16;8.40;;;3.30;;
36137;SDS011;22194;50.046;21.954;2022-07-22T08:10:45;10.00;;;3.50;;
36137;SDS011;22194;50.046;21.954;2022-07-22T08:13:26;12.50;;;3.30;;
36137;SDS011;22194;50.046;21.954;2022-07-22T08:15:57;12.70;;;3.80;;
36137;SDS011;22194;50.046;21.954;2022-07-22T08:18:27;7.90;;;3.10;;
36137;SDS011;22194;50.046;21.954;2022-07-22T08:20:57;7.20;;;3.10;;
36137;SDS011;22194;50.046;21.954;2022-07-22T08:23:27;10.40;;;3.80;;
36137;SDS011;22194;50.046;21.954;2022-07-22T08:25:57;11.20;;;3.60;;
36137;SDS011;22194;50.046;21.954;2022-07-22T08:28:25;8.80;;;3.30;;
36137;SDS011;22194;50.046;21.954;2022-07-22T08:30:53;9.50;;;3.40;;
36137;SDS011;22194;50.046;21.954;2022-07-22T08:33:22;10.30;;;3.90;;
36137;SDS011;22194;50.046;21.954;2022-07-22T08:35:50;9.50;;;3.30;;
36137;SDS011;22194;50.046;21.954;2022-07-22T08:38:18;9.80;;;3.60;;
36137;SDS011;22194;50.046;21.954;2022-07-22T08:40:46;5.80;;;3.10;;
36137;SDS011;22194;50.046;21.954;2022-07-22T08:43:15;8.60;;;3.50;;
36137;SDS011;22194;50.046;21.954;2022-07-22T08:45:43;8.00;;;3.70;;
36137;SDS011;22194;50.046;21.954;2022-07-22T08:48:12;11.10;;;3.60;;
36137;SDS011;22194;50.046;21.954;2022-07-22T08:50:41;11.30;;;3.60;;
36137;SDS011;22194;50.046;21.954;2022-07-22T08:53:11;9.30;;;3.50;;
36137;SDS011;22194;50.046;21.954;2022-07-22T08:55:41;6.70;;;3.30;;
36137;SDS011;22194;50.046;21.954;2022-07-22T09:00:41;12.50;;;3.70;;
36137;SDS011;22194;50.046;21.954;2022-07-22T09:03:24;10.40;;;3.80;;
36137;SDS011;22194;50.046;21.954;2022-07-22T09:05:55;8.30;;;3.60;;
36137;SDS011;22194;50.046;21.954;2022-07-22T09:08:23;10.60;;;3.40;;
36137;SDS011;22194;50.046;21.954;2022-07-22T09:10:51;14.90;;;3.60;;
36137;SDS011;22194;50.046;21.954;2022-07-22T09:13:22;9.00;;;3.60;;
36137;SDS011;22194;50.046;21.954;2022-07-22T09:15:53;9.80;;;4.10;;
36137;SDS011;22194;50.046;21.954;2022-07-22T09:18:23;14.90;;;3.50;;
36137;SDS011;22194;50.046;21.954;2022-07-22T09:20:51;9.30;;;3.70;;
36137;SDS011;22194;50.046;21.954;2022-07-22T09:23:26;9.40;;;4.00;;
36137;SDS011;22194;50.046;21.954;2022-07-22T09:26:28;8.30;;;3.50;;
36137;SDS011;22194;50.046;21.954;2022-07-22T09:28:59;9.90;;;3.80;;
36137;SDS011;22194;50.046;21.954;2022-07-22T09:31:31;11.30;;;4.00;;
36137;SDS011;22194;50.046;21.954;2022-07-22T09:34:04;13.50;;;4.20;;
36137;SDS011;22194;50.046;21.954;2022-07-22T09:36:53;14.30;;;3.90;;
36137;SDS011;22194;50.046;21.954;2022-07-22T09:39:29;13.80;;;3.60;;
36137;SDS011;22194;50.046;21.954;2022-07-22T09:42:03;11.50;;;4.10;;
36137;SDS011;22194;50.046;21.954;2022-07-22T09:44:33;12.70;;;4.10;;
36137;SDS011;22194;50.046;21.954;2022-07-22T09:47:04;13.20;;;4.00;;
36137;SDS011;22194;50.046;21.954;2022-07-22T09:49:33;13.50;;;3.60;;
36137;SDS011;22194;50.046;21.954;2022-07-22T09:52:06;8.10;;;3.60;;
36137;SDS011;22194;50.046;21.954;2022-07-22T09:54:34;12.30;;;3.80;;
36137;SDS011;22194;50.046;21.954;2022-07-22T09:57:03;12.30;;;4.40;;
36137;SDS011;22194;50.046;21.954;2022-07-22T09:59:36;13.10;;;4.00;;
36137;SDS011;22194;50.046;21.954;2022-07-22T10:02:04;10.90;;;4.20;;
36137;SDS011;22194;50.046;21.954;2022-07-22T10:07:05;14.10;;;4.30;;
36137;SDS011;22194;50.046;21.954;2022-07-22T10:09:35;12.40;;;4.40;;
36137;SDS011;22194;50.046;21.954;2022-07-22T10:12:06;11.70;;;4.40;;
36137;SDS011;22194;50.046;21.954;2022-07-22T10:14:37;10.20;;;4.40;;
36137;SDS011;22194;50.046;21.954;2022-07-22T10:17:08;12.40;;;4.10;;
36137;SDS011;22194;50.046;21.954;2022-07-22T10:19:37;15.30;;;4.80;;
36137;SDS011;22194;50.046;21.954;2022-07-22T10:25:09;13.50;;;4.50;;
36137;SDS011;22194;50.046;21.954;2022-07-22T10:30:16;12.60;;;4.40;;
36137;SDS011;22194;50.046;21.954;2022-07-22T10:33:00;6.90;;;4.00;;
36137;SDS011;22194;50.046;21.954;2022-07-22T10:38:11;12.70;;;4.60;;
36137;SDS011;22194;50.046;21.954;2022-07-22T10:40:50;13.40;;;4.60;;
36137;SDS011;22194;50.046;21.954;2022-07-22T10:43:28;17.20;;;4.70;;
36137;SDS011;22194;50.046;21.954;2022-07-22T10:46:16;16.20;;;4.80;;
36137;SDS011;22194;50.046;21.954;2022-07-22T10:48:45;14.30;;;4.90;;
36137;SDS011;22194;50.046;21.954;2022-07-22T10:51:17;15.40;;;5.20;;
36137;SDS011;22194;50.046;21.954;2022-07-22T10:56:31;11.80;;;4.70;;
36137;SDS011;22194;50.046;21.954;2022-07-22T11:01:42;13.00;;;4.60;;
36137;SDS011;22194;50.046;21.954;2022-07-22T11:04:16;13.90;;;5.00;;
36137;SDS011;22194;50.046;21.954;2022-07-22T11:06:46;14.60;;;4.40;;
36137;SDS011;22194;50.046;21.954;2022-07-22T11:09:16;16.70;;;4.90;;
36137;SDS011;22194;50.046;21.954;2022-07-22T11:11:53;13.60;;;4.30;;
36137;SDS011;22194;50.046;21.954;2022-07-22T11:14:34;12.80;;;4.70;;
36137;SDS011;22194;50.046;21.954;2022-07-22T11:17:07;12.50;;;4.10;;
36137;SDS011;22194;50.046;21.954;2022-07-22T11:19:37;12.30;;;4.10;;
36137;SDS011;22194;50.046;21.954;2022-07-22T11:22:07;16.70;;;4.50;;
36137;SDS011;22194;50.046;21.954;2022-07-22T11:24:37;14.50;;;4.90;;
36137;SDS011;22194;50.046;21.954;2022-07-22T11:27:13;11.60;;;4.20;;
36137;SDS011;22194;50.046;21.954;2022-07-22T11:29:42;13.70;;;5.00;;
36137;SDS011;22194;50.046;21.954;2022-07-22T11:32:16;14.50;;;4.70;;
36137;SDS011;22194;50.046;21.954;2022-07-22T11:34:45;11.30;;;4.40;;
36137;SDS011;22194;50.046;21.954;2022-07-22T11:37:17;13.80;;;4.50;;
36137;SDS011;22194;50.046;21.954;2022-07-22T11:39:46;13.10;;;4.50;;
36137;SDS011;22194;50.046;21.954;2022-07-22T11:42:14;15.20;;;4.80;;
36137;SDS011;22194;50.046;21.954;2022-07-22T11:44:43;14.60;;;4.70;;
36137;SDS011;22194;50.046;21.954;2022-07-22T11:47:18;17.40;;;5.30;;
36137;SDS011;22194;50.046;21.954;2022-07-22T11:49:47;14.10;;;4.90;;
36137;SDS011;22194;50.046;21.954;2022-07-22T11:52:16;14.50;;;4.80;;
36137;SDS011;22194;50.046;21.954;2022-07-22T11:54:44;20.20;;;5.10;;
36137;SDS011;22194;50.046;21.954;2022-07-22T11:57:13;16.20;;;5.10;;
36137;SDS011;22194;50.046;21.954;2022-07-22T11:59:42;13.60;;;4.70;;
36137;SDS011;22194;50.046;21.954;2022-07-22T12:02:10;13.80;;;5.60;;
36137;SDS011;22194;50.046;21.954;2022-07-22T12:04:42;14.80;;;5.10;;
36137;SDS011;22194;50.046;21.954;2022-07-22T12:07:13;13.00;;;4.80;;
36137;SDS011;22194;50.046;21.954;2022-07-22T12:09:43;16.80;;;5.70;;
36137;SDS011;22194;50.046;21.954;2022-07-22T12:12:13;16.10;;;5.40;;
36137;SDS011;22194;50.046;21.954;2022-07-22T12:14:44;15.70;;;5.90;;
36137;SDS011;22194;50.046;21.954;2022-07-22T12:17:15;18.10;;;5.70;;
36137;SDS011;22194;50.046;21.954;2022-07-22T12:19:43;16.50;;;5.50;;
36137;SDS011;22194;50.046;21.954;2022-07-22T12:22:12;14.80;;;5.20;;
36137;SDS011;22194;50.046;21.954;2022-07-22T12:24:59;15.70;;;5.60;;
36137;SDS011;22194;50.046;21.954;2022-07-22T12:27:29;14.00;;;5.60;;
36137;SDS011;22194;50.046;21.954;2022-07-22T12:29:58;15.30;;;5.50;;
36137;SDS011;22194;50.046;21.954;2022-07-22T12:32:26;14.50;;;5.40;;
36137;SDS011;22194;50.046;21.954;2022-07-22T12:35:00;15.00;;;6.10;;
36137;SDS011;22194;50.046;21.954;2022-07-22T12:40:06;18.20;;;6.20;;
36137;SDS011;22194;50.046;21.954;2022-07-22T12:42:40;14.80;;;6.50;;
36137;SDS011;22194;50.046;21.954;2022-07-22T12:45:14;21.50;;;7.70;;
36137;SDS011;22194;50.046;21.954;2022-07-22T12:50:36;17.40;;;6.90;;
36137;SDS011;22194;50.046;21.954;2022-07-22T12:53:10;17.70;;;7.00;;
36137;SDS011;22194;50.046;21.954;2022-07-22T12:55:48;16.10;;;7.00;;
36137;SDS011;22194;50.046;21.954;2022-07-22T12:58:19;17.10;;;6.70;;
36137;SDS011;22194;50.046;21.954;2022-07-22T13:00:49;14.90;;;6.80;;
36137;SDS011;22194;50.046;21.954;2022-07-22T13:03:19;18.50;;;7.10;;
36137;SDS011;22194;50.046;21.954;2022-07-22T13:05:50;23.40;;;8.20;;
36137;SDS011;22194;50.046;21.954;2022-07-22T13:08:19;24.60;;;7.80;;
36137;SDS011;22194;50.046;21.954;2022-07-22T13:10:49;17.80;;;7.00;;
36137;SDS011;22194;50.046;21.954;2022-07-22T13:13:17;20.70;;;7.70;;
36137;SDS011;22194;50.046;21.954;2022-07-22T13:15:46;22.10;;;7.40;;
36137;SDS011;22194;50.046;21.954;2022-07-22T13:18:15;21.60;;;8.70;;
36137;SDS011;22194;50.046;21.954;2022-07-22T13:20:44;19.00;;;7.60;;
36137;SDS011;22194;50.046;21.954;2022-07-22T13:23:12;18.80;;;7.90;;
36137;SDS011;22194;50.046;21.954;2022-07-22T13:25:40;20.40;;;7.60;;
36137;SDS011;22194;50.046;21.954;2022-07-22T13:28:08;19.70;;;7.50;;
36137;SDS011;22194;50.046;21.954;2022-07-22T13:30:37;16.00;;;6.80;;
36137;SDS011;22194;50.046;21.954;2022-07-22T13:33:05;22.50;;;8.30;;
36137;SDS011;22194;50.046;21.954;2022-07-22T13:35:33;20.00;;;7.70;;
36137;SDS011;22194;50.046;21.954;2022-07-22T13:38:01;23.80;;;7.50;;
36137;SDS011;22194;50.046;21.954;2022-07-22T13:40:30;17.60;;;7.40;;
36137;SDS011;22194;50.046;21.954;2022-07-22T13:42:58;19.60;;;7.70;;
36137;SDS011;22194;50.046;21.954;2022-07-22T13:45:26;16.20;;;6.60;;
36137;SDS011;22194;50.046;21.954;2022-07-22T13:47:54;14.60;;;6.90;;
36137;SDS011;22194;50.046;21.954;2022-07-22T13:50:22;18.10;;;7.40;;
36137;SDS011;22194;50.046;21.954;2022-07-22T13:52:50;19.20;;;7.30;;
36137;SDS011;22194;50.046;21.954;2022-07-22T13:55:18;16.40;;;7.80;;
36137;SDS011;22194;50.046;21.954;2022-07-22T13:57:46;18.70;;;7.50;;
36137;SDS011;22194;50.046;21.954;2022-07-22T14:00:14;23.60;;;8.40;;
36137;SDS011;22194;50.046;21.954;2022-07-22T14:02:43;18.90;;;8.20;;
36137;SDS011;22194;50.046;21.954;2022-07-22T14:05:12;20.20;;;7.00;;
36137;SDS011;22194;50.046;21.954;2022-07-22T14:07:42;17.90;;;7.50;;
36137;SDS011;22194;50.046;21.954;2022-07-22T14:10:10;18.80;;;7.60;;
36137;SDS011;22194;50.046;21.954;2022-07-22T14:12:39;21.20;;;7.70;;
36137;SDS011;22194;50.046;21.954;2022-07-22T14:15:07;17.60;;;7.30;;
36137;SDS011;22194;50.046;21.954;2022-07-22T14:17:36;16.10;;;6.70;;
36137;SDS011;22194;50.046;21.954;2022-07-22T14:20:07;17.50;;;7.40;;
36137;SDS011;22194;50.046;21.954;2022-07-22T14:22:35;18.50;;;7.40;;
36137;SDS011;22194;50.046;21.954;2022-07-22T14:25:03;15.60;;;6.90;;
36137;SDS011;22194;50.046;21.954;2022-07-22T14:27:31;20.80;;;7.20;;
36137;SDS011;22194;50.046;21.954;2022-07-22T14:29:59;18.90;;;7.70;;
36137;SDS011;22194;50.046;21.954;2022-07-22T14:32:28;19.10;;;7.40;;
36137;SDS011;22194;50.046;21.954;2022-07-22T14:34:55;17.80;;;7.20;;
36137;SDS011;22194;50.046;21.954;2022-07-22T14:37:23;18.90;;;7.70;;
36137;SDS011;22194;50.046;21.954;2022-07-22T14:39:54;17.80;;;7.20;;
36137;SDS011;22194;50.046;21.954;2022-07-22T14:42:22;20.00;;;7.30;;
36137;SDS011;22194;50.046;21.954;2022-07-22T14:44:50;19.60;;;7.10;;
36137;SDS011;22194;50.046;21.954;2022-07-22T14:47:18;18.50;;;7.30;;
36137;SDS011;22194;50.046;21.954;2022-07-22T14:49:46;16.30;;;7.40;;
36137;SDS011;22194;50.046;21.954;2022-07-22T14:52:14;17.90;;;7.10;;
36137;SDS011;22194;50.046;21.954;2022-07-22T14:54:41;16.70;;;7.00;;
36137;SDS011;22194;50.046;21.954;2022-07-22T14:57:09;21.10;;;7.40;;
36137;SDS011;22194;50.046;21.954;2022-07-22T14:59:38;20.00;;;6.60;;
36137;SDS011;22194;50.046;21.954;2022-07-22T15:02:06;19.10;;;6.40;;
36137;SDS011;22194;50.046;21.954;2022-07-22T15:04:35;18.00;;;6.90;;
36137;SDS011;22194;50.046;21.954;2022-07-22T15:07:04;20.10;;;7.20;;